NEOK1: Neosho R at Neosho Rapids, KS

                                SHEF ID:       NEOK1     NEOSHO R AT NEOSHO RAPIDS, KS
STATION TYPE:

STAGE RIV-FLOW BAT-LOAD
ft cfs volt
Ccp-Rev Ccp-Rev Ccp-Rev
(America/Chicago)
02/20 00:00 9.51 5395 12.29
02/20 01:00 9.48 5372 12.27
02/20 02:00 9.47 5364 12.24
02/20 03:00 9.44 5340 12.23
02/20 04:00 9.42 5325 12.21
02/20 05:00 9.40 5309 12.18
02/20 06:00 9.38 5293 12.16
02/20 07:00 9.36 5278 12.14
02/20 08:00 9.34 5262 12.28
02/20 09:00 9.32 5246 13.57
02/20 10:00 9.30 5231 13.55
02/20 11:00 9.28 5215 13.44
02/20 12:00 9.26 5200 13.28
02/20 13:00 9.24 5184 13.16
02/20 14:00 9.22 5168 13.09
02/20 15:00 9.20 5153 13.03
02/20 16:00 9.19 5145 12.89
02/20 17:00 9.17 5130 12.86
02/20 18:00 9.15 5114 12.67
02/20 19:00 9.14 5106 12.52
02/20 20:00 9.11 5083 12.48
02/20 21:00 9.10 5075 12.44
02/20 22:00 9.08 5060 12.42
02/20 23:00 9.07 5052 12.40
Data processed at Sat 21Feb2026 05:36 GMT

NOTICE: If you are parsing this page

Please convert to using our Data API. Starting early 2026 we will be migrating to: https://water.usace.army.mil with modern pages rendered in JavaScript. When this migration completes you will no longer be able to scrape this page! CWMSDataAPI (CDA)

Timeseries IDs (TSIDs)

TSIDs used from left to right in the data table
NEOR.Stage.Inst.1Hour.0.Ccp-Rev
NEOR.Flow.Inst.1Hour.0.Ccp-Rev
NEOR.Volt-Battery Load.Inst.1Hour.0.Ccp-Rev

                            

All information presented herein is the property of the government of the United States of America and may be revised or deleted at any time without prior notice. Dissemination of this information without the expressed written consent of the Public Affairs Office, Tulsa District U.S. Army Corps of Engineers is strictly prohibited. These data are gathered electronically and, as presented, have NOT undergone any form of quality control. These data are NOT guaranteed to be valid or correct.